Time;durP1;ratioP1;P1;durP2;ratioP2;P2;SDS_P1;SDS_P2;PMS_P1;PMS_P2;Temp;Humidity;BMP_temperature;BMP_pressure;BME280_temperature;BME280_humidity;BME280_pressure;Samples;Min_cycle;Max_cycle;Signal;HPM_P1;HPM_P2
2023/06/09 00:05:15;;;;;;;6.18;3.40;;;18.80;99.90;;;;;;10481883;28;20498;-78
2023/06/09 00:10:36;;;;;;;6.15;3.80;;;18.70;99.90;;;;;;10481283;28;20389;-79
2023/06/09 00:15:57;;;;;;;5.95;3.58;;;18.60;99.90;;;;;;10502808;28;20205;-78
2023/06/09 00:21:19;;;;;;;6.15;3.58;;;18.60;99.90;;;;;;10523632;28;20211;-80
2023/06/09 00:26:40;;;;;;;3.53;3.17;;;18.50;99.90;;;;;;10522330;28;20219;-79
2023/06/09 00:32:02;;;;;;;4.47;3.60;;;18.60;99.90;;;;;;10484589;28;20195;-78
2023/06/09 00:37:23;;;;;;;4.32;3.25;;;18.60;99.90;;;;;;10522140;28;20217;-78
2023/06/09 00:42:45;;;;;;;4.85;3.38;;;18.60;99.90;;;;;;10518809;28;20217;-77
2023/06/09 00:48:06;;;;;;;6.72;3.70;;;18.50;99.90;;;;;;10497250;28;20305;-79
2023/06/09 00:53:28;;;;;;;5.20;3.60;;;18.50;99.90;;;;;;10521314;28;20258;-77
2023/06/09 00:58:51;;;;;;;5.78;3.30;;;18.50;99.90;;;;;;10492559;28;20204;-79
2023/06/09 01:04:12;;;;;;;8.05;3.25;;;18.40;99.90;;;;;;10465713;28;20195;-79
2023/06/09 01:09:42;;;;;;;5.55;3.65;;;18.40;99.90;;;;;;10479557;28;20362;-79
2023/06/09 01:15:11;;;;;;;6.10;4.10;;;18.30;99.90;;;;;;10468616;28;20195;-78
2023/06/09 01:21:02;;;;;;;6.30;4.00;;;18.20;99.90;;;;;;10520318;28;20202;-77
2023/06/09 01:26:27;;;;;;;4.47;3.40;;;18.10;99.90;;;;;;10521072;28;20246;-77
2023/06/09 01:31:49;;;;;;;5.93;3.65;;;18.10;99.90;;;;;;10509968;28;20278;-79
2023/06/09 01:37:12;;;;;;;5.78;4.25;;;18.10;99.90;;;;;;10519857;28;20478;-79
2023/06/09 01:42:34;;;;;;;5.13;3.67;;;18.00;1.00;;;;;;10519704;28;20187;-78
2023/06/09 01:47:56;;;;;;;5.78;3.60;;;18.00;1.00;;;;;;10470205;28;20314;-77
2023/06/09 01:53:25;;;;;;;5.93;3.08;;;17.90;1.00;;;;;;10515405;28;20187;-77
2023/06/09 01:58:49;;;;;;;3.65;3.10;;;17.90;1.00;;;;;;10515142;28;20212;-76
2023/06/09 02:04:12;;;;;;;5.03;3.70;;;17.90;1.00;;;;;;10449250;28;20237;-77
2023/06/09 02:09:33;;;;;;;5.00;4.03;;;17.80;1.00;;;;;;10480552;28;20227;-77
2023/06/09 02:14:55;;;;;;;4.43;3.60;;;17.80;1.00;;;;;;10476577;28;20196;-77
2023/06/09 02:20:16;;;;;;;5.38;3.78;;;17.70;1.00;;;;;;10478680;28;20207;-79
2023/06/09 02:25:38;;;;;;;4.68;3.85;;;17.70;1.00;;;;;;10462205;28;20250;-80
2023/06/09 02:30:59;;;;;;;5.45;3.83;;;17.70;1.00;;;;;;10477796;28;20219;-76
2023/06/09 02:36:21;;;;;;;7.13;5.25;;;17.70;1.00;;;;;;10479076;28;20555;-79
2023/06/09 02:41:42;;;;;;;5.13;3.92;;;17.70;1.00;;;;;;10476330;28;20195;-79
2023/06/09 02:47:05;;;;;;;5.50;3.85;;;17.70;1.00;;;;;;10482944;28;20460;-79
2023/06/09 02:52:31;;;;;;;8.50;4.20;;;17.70;1.00;;;;;;10491692;28;20500;-76
2023/06/09 02:57:53;;;;;;;6.88;4.55;;;17.60;21.80;;;;;;10496630;28;20187;-77
2023/06/09 03:03:18;;;;;;;4.72;4.13;;;17.70;75.80;;;;;;10503805;28;20358;-77
2023/06/09 03:08:41;;;;;;;6.95;3.90;;;17.60;99.90;;;;;;10471150;28;20224;-77
2023/06/09 03:14:04;;;;;;;5.22;3.95;;;17.60;99.90;;;;;;10475690;28;20180;-77
2023/06/09 03:19:26;;;;;;;5.07;4.05;;;17.80;99.90;;;;;;10505721;28;20291;-79
2023/06/09 03:24:49;;;;;;;7.38;4.80;;;17.80;99.90;;;;;;10461398;28;20238;-78
2023/06/09 03:30:12;;;;;;;5.65;4.00;;;17.80;99.90;;;;;;10475149;28;20223;-78
2023/06/09 03:35:37;;;;;;;5.53;3.85;;;17.80;99.90;;;;;;10480630;28;20215;-77
2023/06/09 03:40:58;;;;;;;3.85;3.40;;;18.00;99.90;;;;;;10482987;28;20195;-77
2023/06/09 03:46:21;;;;;;;4.35;3.70;;;18.00;99.90;;;;;;10487032;28;20431;-77
2023/06/09 03:51:44;;;;;;;5.32;3.95;;;17.90;99.90;;;;;;10523677;28;20203;-76
2023/06/09 03:57:06;;;;;;;10.77;5.32;;;18.00;1.00;;;;;;10509284;28;20191;-77
2023/06/09 04:02:28;;;;;;;7.10;5.07;;;18.00;1.00;;;;;;10481424;28;20207;-78
2023/06/09 04:07:49;;;;;;;10.80;5.00;;;18.00;1.00;;;;;;10481814;28;20228;-76
2023/06/09 04:13:11;;;;;;;6.03;4.57;;;18.00;1.00;;;;;;10498128;28;20229;-77
2023/06/09 04:18:33;;;;;;;7.80;4.68;;;18.00;1.00;;;;;;10512724;28;20206;-80
2023/06/09 04:23:54;;;;;;;6.65;4.55;;;18.00;1.00;;;;;;10481509;28;20192;-80
2023/06/09 04:29:17;;;;;;;6.47;4.15;;;18.10;1.00;;;;;;10484697;28;20223;-80
2023/06/09 04:34:39;;;;;;;7.18;4.43;;;18.20;1.00;;;;;;10466936;28;20490;-80
2023/06/09 04:40:08;;;;;;;6.35;4.10;;;18.30;1.00;;;;;;10467480;28;20420;-78
2023/06/09 04:45:34;;;;;;;10.55;4.88;;;18.50;1.00;;;;;;10483732;28;20496;-76
2023/06/09 04:51:04;;;;;;;8.07;4.10;;;18.50;1.00;;;;;;10479427;28;20271;-78
2023/06/09 04:56:33;;;;;;;6.45;3.80;;;;;;;;;;10517651;28;20470;-79
2023/06/09 05:01:55;;;;;;;7.05;3.75;;;18.90;1.00;;;;;;10479877;28;20498;-79
2023/06/09 05:07:16;;;;;;;3.42;3.03;;;19.10;1.00;;;;;;10465532;28;20303;-78
2023/06/09 05:12:38;;;;;;;6.47;3.70;;;19.20;1.00;;;;;;10467485;28;20210;-80
2023/06/09 05:18:00;;;;;;;9.48;3.72;;;19.20;1.00;;;;;;10497245;28;20196;-76
2023/06/09 05:23:22;;;;;;;5.45;3.40;;;19.20;1.00;;;;;;10502264;28;20196;-79
2023/06/09 05:28:46;;;;;;;4.57;3.65;;;19.30;1.00;;;;;;10454233;28;20235;-79
2023/06/09 05:34:08;;;;;;;6.75;3.70;;;19.40;1.00;;;;;;10478453;28;20195;-78
2023/06/09 05:39:30;;;;;;;6.15;3.80;;;19.40;1.00;;;;;;10477342;28;20374;-80
2023/06/09 05:44:52;;;;;;;10.00;4.22;;;19.50;1.00;;;;;;10481694;28;20206;-78
2023/06/09 05:50:13;;;;;;;7.57;3.90;;;19.60;1.00;;;;;;10511042;28;20244;-79
2023/06/09 05:55:36;;;;;;;6.45;4.43;;;19.60;1.00;;;;;;10517609;28;20262;-78
2023/06/09 06:00:58;;;;;;;5.82;3.92;;;19.80;89.30;;;;;;10477671;28;20203;-80
2023/06/09 06:06:19;;;;;;;6.55;3.75;;;19.70;1.00;;;;;;10462930;28;20199;-78
2023/06/09 06:11:41;;;;;;;7.72;4.00;;;19.70;18.70;;;;;;10477497;28;20206;-80
2023/06/09 06:17:02;;;;;;;11.05;6.55;;;19.70;1.00;;;;;;10484098;28;20556;-78
2023/06/09 06:22:24;;;;;;;9.68;5.78;;;19.80;1.00;;;;;;10476317;28;20210;-80
2023/06/09 06:27:45;;;;;;;9.38;5.40;;;19.70;1.00;;;;;;10476270;28;20219;-79
2023/06/09 06:33:08;;;;;;;10.90;5.43;;;19.70;13.50;;;;;;10477244;28;20208;-80
2023/06/09 06:38:29;;;;;;;12.18;5.15;;;19.60;1.00;;;;;;10477364;28;20206;-78
2023/06/09 06:43:51;;;;;;;17.42;6.93;;;19.60;1.00;;;;;;10481477;28;20270;-82
2023/06/09 06:49:12;;;;;;;16.08;6.90;;;19.70;99.90;;;;;;10501280;28;20243;-79
2023/06/09 06:54:34;;;;;;;12.80;6.40;;;19.60;1.00;;;;;;10474691;28;20546;-82
2023/06/09 06:59:55;;;;;;;11.07;6.85;;;19.50;1.00;;;;;;10389270;28;20224;-81
2023/06/09 07:05:21;;;;;;;8.25;5.75;;;19.50;1.00;;;;;;10401818;28;20398;-81
2023/06/09 07:10:42;;;;;;;12.02;6.45;;;19.50;1.00;;;;;;10422624;28;20228;-81
2023/06/09 07:16:04;;;;;;;11.27;6.88;;;19.50;1.00;;;;;;10409914;28;20208;-82
2023/06/09 07:21:25;;;;;;;10.15;6.97;;;19.50;1.00;;;;;;10407504;28;20212;-81
2023/06/09 07:26:46;;;;;;;9.07;6.03;;;19.50;1.00;;;;;;10381935;28;20400;-84
2023/06/09 07:32:10;;;;;;;17.80;8.52;;;19.50;1.00;;;;;;10370340;28;20508;-79
2023/06/09 07:37:31;;;;;;;18.13;10.30;;;19.60;1.00;;;;;;10381174;28;20468;-79
2023/06/09 07:42:52;;;;;;;16.75;11.05;;;19.50;99.90;;;;;;10412923;28;20235;-79
2023/06/09 07:48:14;;;;;;;20.85;11.60;;;19.60;99.90;;;;;;10412168;28;20240;-80
2023/06/09 07:53:37;;;;;;;14.20;9.45;;;19.70;99.90;;;;;;10426290;28;20468;-79
2023/06/09 07:58:59;;;;;;;12.30;8.95;;;19.70;1.00;;;;;;10421180;28;20251;-79
2023/06/09 08:04:20;;;;;;;13.27;8.77;;;19.70;1.00;;;;;;10367652;28;20507;-79
2023/06/09 08:09:41;;;;;;;17.02;9.82;;;19.70;1.00;;;;;;10393282;28;20460;-78
2023/06/09 08:15:03;;;;;;;15.30;8.93;;;19.60;1.00;;;;;;10390823;28;20292;-79
2023/06/09 08:20:24;;;;;;;18.42;10.70;;;19.60;99.90;;;;;;10397551;28;20470;-82
2023/06/09 08:25:46;;;;;;;19.77;10.45;;;19.60;99.90;;;;;;10396131;28;20538;-80
2023/06/09 08:31:11;;;;;;;18.10;10.07;;;19.70;1.00;;;;;;10385844;28;20224;-82
2023/06/09 08:36:32;;;;;;;14.80;9.30;;;19.70;1.00;;;;;;10419636;28;20231;-85
2023/06/09 08:41:56;;;;;;;13.68;8.75;;;19.80;99.90;;;;;;10381971;28;20287;-80
2023/06/09 08:47:20;;;;;;;11.32;6.90;;;19.80;99.90;;;;;;10401998;28;20248;-82
2023/06/09 08:52:42;;;;;;;17.85;9.85;;;20.00;99.90;;;;;;10399262;28;20200;-81
2023/06/09 08:58:04;;;;;;;13.85;10.02;;;20.00;1.00;;;;;;10375897;28;20235;-81
2023/06/09 09:03:25;;;;;;;19.90;11.45;;;20.10;1.00;;;;;;10361368;28;20413;-82
2023/06/09 09:08:46;;;;;;;19.85;13.50;;;20.20;1.00;;;;;;10369913;28;20254;-81
2023/06/09 09:14:09;;;;;;;21.92;15.60;;;20.10;1.00;;;;;;10350325;28;20285;-81
2023/06/09 09:19:30;;;;;;;23.67;14.95;;;20.10;1.00;;;;;;10368119;28;20218;-81
2023/06/09 09:24:53;;;;;;;18.17;12.05;;;20.20;99.90;;;;;;10368234;28;20205;-81
2023/06/09 09:30:14;;;;;;;22.10;13.10;;;20.30;10.40;;;;;;10392722;28;20266;-84
2023/06/09 09:35:42;;;;;;;17.45;11.23;;;20.40;99.90;;;;;;10365561;28;20280;-80
2023/06/09 09:41:04;;;;;;;22.33;12.25;;;20.50;99.90;;;;;;10344544;28;20355;-80
2023/06/09 09:46:26;;;;;;;14.35;11.10;;;20.40;99.90;;;;;;10398050;28;20245;-80
2023/06/09 09:51:48;;;;;;;20.40;10.68;;;20.30;1.00;;;;;;10350315;28;20207;-79
2023/06/09 09:57:11;;;;;;;15.43;10.40;;;20.20;28.80;;;;;;10402930;28;20294;-80
2023/06/09 10:02:35;;;;;;;13.77;9.18;;;20.20;90.20;;;;;;10382344;28;20385;-80
2023/06/09 10:08:00;;;;;;;11.00;8.40;;;20.20;1.00;;;;;;10391606;28;20240;-81
2023/06/09 10:13:22;;;;;;;11.98;9.07;;;20.40;1.00;;;;;;10387046;28;20205;-82
2023/06/09 10:18:44;;;;;;;18.35;10.05;;;20.40;73.40;;;;;;10368291;28;20230;-82
2023/06/09 10:24:06;;;;;;;14.75;10.07;;;20.40;99.90;;;;;;10379526;28;20197;-78
2023/06/09 10:29:29;;;;;;;13.52;9.73;;;20.50;1.00;;;;;;10373357;28;20224;-82
2023/06/09 10:34:52;;;;;;;14.63;9.40;;;20.60;1.00;;;;;;10390809;28;20502;-78
2023/06/09 10:40:40;;;;;;;12.20;7.72;;;20.60;1.00;;;;;;10395682;28;20197;-80
2023/06/09 10:46:02;;;;;;;8.50;7.38;;;20.80;1.00;;;;;;10394719;28;20561;-82
2023/06/09 10:51:27;;;;;;;11.32;6.65;;;;;;;;;;10372591;28;20221;-80
2023/06/09 10:56:52;;;;;;;12.45;8.57;;;21.40;99.90;;;;;;10402000;28;20223;-83
2023/06/09 11:02:15;;;;;;;13.98;8.77;;;21.70;99.90;;;;;;10380676;28;20281;-82
2023/06/09 11:07:43;;;;;;;11.95;8.70;;;21.90;1.00;;;;;;10374181;28;20218;-80
2023/06/09 11:13:38;;;;;;;16.10;10.40;;;22.20;1.00;;;;;;10369732;28;20217;-78
2023/06/09 11:19:21;;;;;;;15.02;8.93;;;22.50;99.90;;;;;;10409655;28;20208;-79
2023/06/09 11:24:50;;;;;;;11.48;9.00;;;22.90;1.00;;;;;;10391801;28;20402;-80
2023/06/09 11:30:20;;;;;;;13.43;8.45;;;23.40;40.90;;;;;;10396822;28;20236;-79
2023/06/09 11:35:44;;;;;;;12.95;8.82;;;23.70;99.90;;;;;;10405609;28;20421;-79
2023/06/09 11:41:10;;;;;;;11.20;7.65;;;24.00;99.90;;;;;;10379840;28;20201;-81
2023/06/09 11:46:34;;;;;;;11.95;7.43;;;24.30;1.00;;;;;;10409920;28;20224;-81
2023/06/09 11:51:59;;;;;;;11.10;7.75;;;24.70;99.90;;;;;;10375553;28;20206;-81
2023/06/09 11:57:22;;;;;;;7.43;6.25;;;25.20;1.00;;;;;;10410143;28;20295;-82
2023/06/09 12:02:45;;;;;;;13.00;7.35;;;25.50;1.00;;;;;;10374096;28;20546;-77
2023/06/09 12:08:12;;;;;;;8.02;5.80;;;26.00;1.00;;;;;;10396869;28;20538;-81
2023/06/09 12:20:31;;;;;;;11.40;6.00;;;27.20;1.00;;;;;;10617490;27;21191;-80
2023/06/09 12:25:53;;;;;;;9.70;5.40;;;27.20;1.00;;;;;;10586879;28;20208;-78
2023/06/09 12:31:14;;;;;;;6.90;5.53;;;27.50;99.90;;;;;;10583942;28;20201;-82
2023/06/09 12:36:40;;;;;;;9.60;6.55;;;28.00;99.90;;;;;;10606935;27;20734;-82
2023/06/09 12:42:12;;;;;;;5.68;4.70;;;28.20;99.90;;;;;;10607147;27;20410;-80
2023/06/09 12:47:33;;;;;;;4.80;4.30;;;28.30;99.90;;;;;;10586995;27;20216;-80
2023/06/09 12:52:54;;;;;;;6.70;3.80;;;28.50;99.90;;;;;;10596320;27;20186;-83
2023/06/09 12:58:16;;;;;;;6.60;5.22;;;28.60;99.90;;;;;;10605435;28;20394;-81
2023/06/09 13:03:38;;;;;;;4.55;4.07;;;28.60;99.90;;;;;;10583347;27;20304;-82
2023/06/09 13:09:00;;;;;;;6.45;4.35;;;28.70;99.90;;;;;;10595124;28;20384;-82
2023/06/09 13:14:22;;;;;;;7.40;4.65;;;28.80;99.90;;;;;;10603709;27;20202;-83
2023/06/09 13:19:43;;;;;;;5.20;3.85;;;28.70;99.90;;;;;;10549135;28;20256;-82
2023/06/09 13:25:06;;;;;;;5.10;3.90;;;28.90;99.90;;;;;;10606013;27;20185;-83
2023/06/09 13:30:27;;;;;;;6.25;4.32;;;28.90;99.90;;;;;;10575832;28;20194;-83
2023/06/09 13:35:48;;;;;;;24.15;16.42;;;28.20;99.90;;;;;;10553853;28;20446;-80
2023/06/09 13:41:11;;;;;;;15.38;9.80;;;27.70;99.90;;;;;;10579504;28;20213;-81
2023/06/09 13:46:34;;;;;;;16.50;9.30;;;27.30;99.90;;;;;;10569778;28;20260;-83
2023/06/09 13:51:56;;;;;;;15.02;6.30;;;27.10;99.90;;;;;;10552549;28;20412;-84
2023/06/09 13:57:17;;;;;;;9.73;5.90;;;27.20;99.90;;;;;;10543216;28;20576;-85
2023/06/09 14:02:39;;;;;;;9.73;4.60;;;27.00;99.90;;;;;;10476941;28;20540;-86
2023/06/09 14:08:01;;;;;;;11.80;5.60;;;26.60;99.90;;;;;;10485918;28;20604;-81
2023/06/09 14:13:22;;;;;;;9.55;5.00;;;26.20;99.90;;;;;;10436379;28;20238;-82
2023/06/09 14:18:44;;;;;;;7.20;4.88;;;25.70;99.90;;;;;;10470448;28;20258;-81
2023/06/09 14:24:05;;;;;;;10.00;4.90;;;25.40;99.90;;;;;;10427457;28;20475;-81
2023/06/09 14:29:32;;;;;;;8.80;6.03;;;25.10;99.90;;;;;;10451678;28;20261;-81
2023/06/09 14:37:56;;;;;;;7.95;4.82;;;24.60;99.90;;;;;;10510782;28;20557;-79
2023/06/09 14:43:17;;;;;;;7.55;5.10;;;24.30;1.00;;;;;;10494917;28;20199;-79
2023/06/09 14:48:38;;;;;;;7.85;4.53;;;24.10;1.00;;;;;;10495973;28;20401;-80
2023/06/09 14:53:59;;;;;;;5.38;4.35;;;23.80;1.00;;;;;;10469423;28;20223;-80
2023/06/09 14:59:21;;;;;;;6.22;4.35;;;23.80;1.00;;;;;;10502989;28;20191;-79
2023/06/09 15:04:42;;;;;;;7.30;4.10;;;23.60;1.00;;;;;;10497114;28;20203;-80
2023/06/09 15:10:04;;;;;;;6.90;5.03;;;23.50;1.00;;;;;;10488389;28;20267;-80
2023/06/09 15:15:27;;;;;;;9.48;4.28;;;23.40;1.00;;;;;;10486503;28;20285;-80
2023/06/09 15:20:49;;;;;;;7.85;4.20;;;23.30;1.00;;;;;;10498557;28;20184;-80
2023/06/09 15:26:10;;;;;;;6.30;4.00;;;23.10;1.00;;;;;;10491595;28;20366;-79
2023/06/09 15:31:31;;;;;;;7.45;4.15;;;23.00;1.00;;;;;;10510321;28;20203;-80
2023/06/09 15:36:52;;;;;;;5.03;3.40;;;22.90;1.00;;;;;;10495098;28;20311;-79
2023/06/09 15:42:14;;;;;;;6.93;3.92;;;22.90;1.00;;;;;;10472644;28;20199;-79
2023/06/09 15:47:35;;;;;;;6.78;4.03;;;22.90;1.00;;;;;;10489037;28;20203;-79
2023/06/09 15:53:00;;;;;;;6.60;3.97;;;22.90;1.00;;;;;;10477602;28;20223;-78
2023/06/09 15:58:21;;;;;;;7.80;4.65;;;23.00;1.00;;;;;;10513044;28;20226;-79
2023/06/09 16:03:42;;;;;;;6.18;4.80;;;22.90;1.00;;;;;;10457664;28;20196;-79
2023/06/09 16:09:05;;;;;;;7.88;3.40;;;23.00;1.00;;;;;;10458587;28;20189;-79
2023/06/09 16:14:26;;;;;;;8.05;3.47;;;22.80;1.00;;;;;;10452198;28;20303;-79
2023/06/09 16:19:48;;;;;;;15.88;9.50;;;22.90;1.00;;;;;;10461328;28;20184;-79
2023/06/09 16:25:10;;;;;;;6.65;3.33;;;23.00;1.00;;;;;;10440306;28;20279;-80
2023/06/09 16:30:35;;;;;;;9.18;3.50;;;22.90;1.00;;;;;;10443433;28;20201;-79
2023/06/09 16:35:57;;;;;;;9.98;3.50;;;22.90;1.00;;;;;;10447610;28;20247;-79
2023/06/09 16:41:18;;;;;;;9.13;4.40;;;23.00;1.00;;;;;;10479850;28;20218;-80
2023/06/09 16:46:39;;;;;;;8.10;3.70;;;23.10;1.00;;;;;;10470863;28;20207;-79
2023/06/09 16:52:01;;;;;;;7.07;3.95;;;23.10;1.00;;;;;;10465492;28;20230;-79
2023/06/09 16:57:22;;;;;;;9.15;5.82;;;23.00;1.00;;;;;;10469237;28;20237;-79
2023/06/09 17:02:43;;;;;;;6.32;3.83;;;22.80;1.00;;;;;;10503931;28;20193;-79
2023/06/09 17:08:05;;;;;;;6.53;3.60;;;22.70;1.00;;;;;;10461346;28;20498;-79
2023/06/09 17:13:26;;;;;;;9.85;5.13;;;22.50;1.00;;;;;;10445846;28;20206;-80
2023/06/09 17:18:48;;;;;;;8.55;5.32;;;22.30;1.00;;;;;;10442161;28;20375;-80
2023/06/09 17:24:09;;;;;;;10.05;4.05;;;22.20;1.00;;;;;;10476580;28;20187;-79
2023/06/09 17:29:31;;;;;;;7.45;5.70;;;22.00;1.00;;;;;;10479373;28;20191;-80
2023/06/09 17:34:52;;;;;;;12.57;4.90;;;21.80;1.00;;;;;;10437504;28;20248;-80
2023/06/09 17:40:14;;;;;;;7.75;4.28;;;21.70;1.00;;;;;;10454527;28;20184;-80
